Terminal Aerodrome Forecast
Issued by NWS

Home | Current Version | Previous Version | Text Only | Print | Product List | Glossary On
Versions: 1 2 3 4 5 6 7 8 9 10 11 12 13 14
000
FTUS45 KPIH 020520
TAFSUN
TAF
KSUN 020520Z 0206/0306 31010KT P6SM FEW130
     FM021700 15010KT P6SM SCT130
     FM022000 20010G20KT P6SM SCT130
     FM030300 30008KT P6SM FEW130
      AMD LTD TO CLD VIS AND WIND TIL 021300=

USA.gov is the U.S. government's official web portal to all federal, state and local government web resources and services.